createdAt,value
2023-03-26T00:01:21.454Z,71.09
2023-03-26T00:04:25.340Z,71.14
2023-03-26T00:07:27.997Z,71.84
2023-03-26T00:10:30.475Z,71.41
2023-03-26T00:13:33.285Z,71.51
2023-03-26T00:16:36.063Z,72.20
2023-03-26T00:19:39.009Z,72.64
2023-03-26T00:22:41.629Z,72.37
2023-03-26T00:25:45.630Z,71.92
2023-03-26T00:28:51.197Z,71.61
2023-03-26T00:31:53.427Z,71.16
2023-03-26T00:34:56.816Z,71.90
2023-03-26T00:37:59.822Z,72.40
2023-03-26T00:41:06.067Z,72.24
2023-03-26T00:44:09.249Z,73.06
2023-03-26T00:47:11.824Z,73.97
2023-03-26T00:50:16.233Z,73.55
2023-03-26T00:53:19.997Z,72.66
2023-03-26T00:56:22.337Z,73.26
2023-03-26T00:59:24.782Z,73.01
2023-03-26T01:02:27.215Z,74.16
2023-03-26T01:05:33.948Z,72.93
2023-03-26T01:08:36.055Z,72.93
2023-03-26T01:11:38.526Z,73.56
2023-03-26T01:14:41.617Z,74.04
2023-03-26T01:17:44.154Z,74.01
2023-03-26T01:20:49.701Z,73.06
2023-03-26T01:23:59.938Z,73.79
2023-03-26T01:27:17.769Z,74.50
2023-03-26T01:30:42.501Z,74.21
2023-03-26T01:34:03.865Z,73.12
2023-03-26T01:37:52.447Z,73.08
2023-03-26T01:41:00.684Z,70.96
2023-03-26T01:44:17.183Z,71.42
2023-03-26T01:47:21.173Z,71.05
2023-03-26T01:50:23.746Z,70.44
2023-03-26T01:53:26.858Z,70.50
2023-03-26T01:56:50.372Z,69.29
2023-03-26T01:59:58.597Z,69.47
2023-03-26T02:03:17.673Z,69.41
2023-03-26T02:06:31.738Z,69.82
2023-03-26T02:09:42.049Z,69.77
2023-03-26T02:12:45.752Z,70.26
2023-03-26T02:15:54.764Z,70.26
2023-03-26T02:18:59.216Z,70.90
2023-03-26T02:22:02.196Z,71.35
2023-03-26T02:25:05.220Z,71.56
2023-03-26T02:28:07.789Z,71.82
2023-03-26T02:31:10.947Z,71.99
2023-03-26T02:34:13.831Z,72.42
2023-03-26T02:37:20.832Z,72.01
2023-03-26T02:40:24.958Z,73.20
2023-03-26T02:43:27.653Z,73.55
2023-03-26T02:46:30.329Z,73.37
2023-03-26T02:49:33.857Z,73.96
2023-03-26T02:52:36.438Z,73.83
2023-03-26T02:55:39.075Z,73.65
2023-03-26T02:58:42.051Z,74.47
2023-03-26T03:01:46.524Z,74.45
2023-03-26T03:04:49.813Z,74.64
2023-03-26T03:07:57.940Z,75.99
2023-03-26T03:11:08.162Z,75.95
2023-03-26T03:14:10.856Z,76.29
2023-03-26T03:17:13.485Z,76.97
2023-03-26T03:20:16.702Z,76.36
2023-03-26T03:23:19.465Z,76.53
2023-03-26T03:26:27.652Z,76.68
2023-03-26T03:29:30.339Z,76.41
2023-03-26T03:32:33.789Z,76.16
2023-03-26T03:35:37.794Z,76.69
2023-03-26T03:38:40.624Z,77.01
2023-03-26T03:41:43.228Z,77.46
2023-03-26T03:44:46.834Z,77.80
2023-03-26T03:47:50.275Z,76.98
2023-03-26T03:50:55.010Z,77.79
2023-03-26T03:53:57.764Z,76.80
2023-03-26T03:57:02.172Z,76.95
2023-03-26T04:00:08.907Z,76.56
2023-03-26T04:03:18.650Z,77.73
2023-03-26T04:06:21.436Z,78.66
2023-03-26T04:09:25.358Z,78.18
2023-03-26T04:12:29.022Z,78.53
2023-03-26T04:15:31.361Z,78.84
2023-03-26T04:18:34.224Z,78.67
2023-03-26T04:21:37.797Z,79.35
2023-03-26T04:24:40.807Z,81.36
2023-03-26T04:27:46.202Z,81.69
2023-03-26T04:30:48.845Z,81.98
2023-03-26T04:33:57.375Z,82.95
2023-03-26T04:37:02.556Z,82.75
2023-03-26T04:40:11.163Z,83.30
2023-03-26T04:43:18.660Z,82.67
2023-03-26T04:46:23.898Z,83.30
2023-03-26T04:49:26.795Z,83.80
2023-03-26T04:52:29.491Z,83.58
2023-03-26T04:55:43.138Z,83.06
2023-03-26T04:58:46.006Z,80.68
2023-03-26T05:01:48.510Z,79.96
2023-03-26T05:04:51.143Z,81.09
2023-03-26T05:07:53.956Z,80.33
2023-03-26T05:10:56.763Z,79.39
2023-03-26T05:14:02.044Z,77.75
2023-03-26T05:17:06.101Z,77.56
2023-03-26T05:20:20.841Z,75.48
2023-03-26T05:23:23.141Z,70.96
2023-03-26T05:26:26.216Z,67.85
2023-03-26T05:29:28.510Z,65.19
2023-03-26T05:32:32.365Z,64.93
2023-03-26T05:35:34.772Z,64.46
2023-03-26T05:38:37.429Z,66.39
2023-03-26T05:41:40.256Z,62.10
2023-03-26T05:44:42.712Z,55.48
2023-03-26T05:47:46.090Z,54.41
2023-03-26T05:50:50.472Z,53.80
2023-03-26T05:53:53.016Z,49.34
2023-03-26T05:57:00.340Z,46.47
2023-03-26T06:00:12.144Z,42.50
2023-03-26T06:03:18.720Z,43.78
2023-03-26T06:06:22.285Z,45.95
2023-03-26T06:09:24.846Z,38.06
2023-03-26T06:12:27.635Z,36.28
2023-03-26T06:15:29.838Z,35.84
2023-03-26T06:18:33.212Z,32.82
2023-03-26T06:21:35.397Z,30.42
2023-03-26T06:24:38.132Z,28.51
2023-03-26T06:27:40.772Z,25.15
2023-03-26T06:30:43.677Z,23.73
2023-03-26T06:33:48.723Z,21.82
2023-03-26T06:36:52.721Z,23.29
2023-03-26T06:39:55.376Z,24.79
2023-03-26T06:43:07.651Z,25.30
2023-03-26T06:46:13.395Z,22.25
2023-03-26T06:49:17.774Z,23.95
2023-03-26T06:52:20.263Z,23.96
2023-03-26T06:55:23.535Z,24.48
2023-03-26T06:58:26.993Z,24.73
2023-03-26T07:01:35.791Z,25.34
2023-03-26T07:04:53.565Z,24.62
2023-03-26T07:08:04.705Z,25.91
2023-03-26T07:11:11.586Z,25.15
2023-03-26T07:14:17.754Z,24.43
2023-03-26T07:17:20.701Z,23.61
2023-03-26T07:20:24.052Z,28.01
2023-03-26T07:23:27.152Z,28.48
2023-03-26T07:26:51.977Z,29.13
2023-03-26T07:30:04.265Z,34.27
2023-03-26T07:33:14.033Z,38.13
2023-03-26T07:36:28.615Z,41.25
2023-03-26T07:39:37.633Z,44.89
2023-03-26T07:43:06.567Z,47.40
2023-03-26T07:46:12.569Z,48.85
2023-03-26T07:49:15.251Z,49.00
2023-03-26T07:52:18.196Z,47.84
2023-03-26T07:55:21.192Z,48.14
2023-03-26T07:58:41.552Z,45.00
2023-03-26T08:02:02.808Z,44.79
2023-03-26T08:05:19.670Z,44.78
2023-03-26T08:08:38.178Z,42.77
2023-03-26T08:11:56.895Z,42.24
2023-03-26T08:15:41.563Z,43.26
2023-03-26T08:18:56.166Z,44.90
2023-03-26T08:22:27.341Z,43.97
2023-03-26T08:25:40.422Z,43.59
2023-03-26T08:28:55.256Z,43.25
2023-03-26T08:31:57.960Z,43.26
2023-03-26T08:35:01.134Z,42.49
2023-03-26T08:38:03.665Z,42.28
2023-03-26T08:41:08.908Z,43.85
2023-03-26T08:44:36.430Z,42.74
2023-03-26T08:47:44.607Z,42.94
2023-03-26T08:51:07.618Z,43.03
2023-03-26T08:54:39.208Z,42.62
2023-03-26T08:58:24.329Z,42.62
2023-03-26T09:01:47.997Z,41.97
2023-03-26T09:05:30.076Z,41.73
2023-03-26T09:09:04.581Z,41.43
2023-03-26T09:12:25.535Z,40.05
2023-03-26T09:15:33.722Z,38.38
2023-03-26T09:18:36.931Z,38.54
2023-03-26T09:21:48.361Z,38.25
2023-03-26T09:24:59.831Z,38.13
2023-03-26T09:28:23.602Z,36.90
2023-03-26T09:31:38.262Z,37.43
2023-03-26T09:34:55.913Z,36.21
2023-03-26T09:38:00.734Z,36.23
2023-03-26T09:41:14.371Z,35.52
2023-03-26T09:44:19.798Z,35.83
2023-03-26T09:47:47.437Z,36.38
2023-03-26T09:51:11.412Z,38.15
2023-03-26T09:54:36.810Z,35.98
2023-03-26T09:58:19.004Z,35.31
2023-03-26T10:01:58.743Z,34.72
2023-03-26T10:05:35.101Z,33.59
2023-03-26T10:08:51.339Z,33.66
2023-03-26T10:12:01.160Z,34.54
2023-03-26T10:15:24.039Z,37.37
2023-03-26T10:18:36.869Z,38.70
2023-03-26T10:22:10.597Z,39.58
2023-03-26T10:25:22.358Z,40.03
2023-03-26T10:28:45.791Z,41.40
2023-03-26T10:31:51.571Z,47.16
2023-03-26T10:35:03.994Z,55.37
2023-03-26T10:38:32.956Z,68.05
2023-03-26T10:42:00.582Z,73.15
2023-03-26T10:45:18.050Z,80.09
2023-03-26T10:48:49.643Z,88.20
2023-03-26T10:52:00.932Z,72.62
2023-03-26T10:55:29.146Z,74.05
2023-03-26T10:58:49.463Z,70.18
2023-03-26T11:02:19.300Z,60.35
2023-03-26T11:05:47.065Z,57.01
2023-03-26T11:09:03.855Z,61.42
2023-03-26T11:12:35.244Z,68.86
2023-03-26T11:16:02.726Z,62.70
2023-03-26T11:19:20.235Z,58.71
2023-03-26T11:22:53.623Z,65.30
2023-03-26T11:26:49.099Z,65.00
2023-03-26T11:30:16.191Z,61.84
2023-03-26T11:33:22.977Z,57.75
2023-03-26T11:36:36.310Z,58.90
2023-03-26T11:39:50.989Z,59.72
2023-03-26T11:42:58.501Z,57.70
2023-03-26T11:46:04.741Z,50.29
2023-03-26T11:49:12.454Z,48.69
2023-03-26T11:52:15.812Z,40.83
2023-03-26T11:55:18.097Z,38.79
2023-03-26T11:58:27.864Z,34.42
2023-03-26T12:01:44.212Z,32.94
2023-03-26T12:04:55.295Z,30.54
2023-03-26T12:08:00.572Z,33.17
2023-03-26T12:11:09.270Z,35.49
2023-03-26T12:14:19.036Z,42.14
2023-03-26T12:17:31.247Z,41.57
2023-03-26T12:20:36.693Z,40.43
2023-03-26T12:24:04.283Z,39.71
2023-03-26T12:27:21.626Z,42.60
2023-03-26T12:30:26.873Z,40.84
2023-03-26T12:33:34.867Z,40.34
2023-03-26T12:36:39.056Z,43.12
2023-03-26T12:40:10.039Z,40.22
2023-03-26T12:44:53.470Z,37.96
2023-03-26T12:48:00.299Z,38.78
2023-03-26T12:50:58.152Z,36.86
2023-03-26T12:54:26.459Z,30.87
2023-03-26T12:57:38.808Z,30.37
2023-03-26T13:01:05.999Z,33.07
2023-03-26T13:05:05.694Z,34.79
2023-03-26T13:08:47.193Z,35.49
2023-03-26T13:12:00.677Z,35.81
2023-03-26T13:15:18.230Z,33.35
2023-03-26T13:18:53.934Z,34.21
2023-03-26T13:22:20.108Z,33.53
2023-03-26T13:25:42.907Z,30.82
2023-03-26T13:29:00.123Z,30.90
2023-03-26T13:32:21.947Z,32.23
2023-03-26T13:35:28.907Z,31.47
2023-03-26T13:39:04.995Z,31.50
2023-03-26T13:42:25.413Z,31.96
2023-03-26T13:45:49.547Z,32.10
2023-03-26T13:48:57.755Z,33.58
2023-03-26T13:52:32.284Z,33.20
2023-03-26T13:55:43.625Z,33.00
2023-03-26T13:58:54.183Z,33.58
2023-03-26T14:02:05.185Z,32.56
2023-03-26T14:05:28.095Z,31.61
2023-03-26T14:08:36.130Z,32.41
2023-03-26T14:12:00.179Z,31.28
2023-03-26T14:15:19.538Z,32.14
2023-03-26T14:18:53.563Z,30.63
2023-03-26T14:22:08.917Z,29.84
2023-03-26T14:25:39.063Z,30.74
2023-03-26T14:29:03.852Z,31.12
2023-03-26T14:32:24.924Z,30.73
2023-03-26T14:35:58.143Z,29.76
2023-03-26T14:39:49.469Z,30.20
2023-03-26T14:43:09.887Z,29.93
2023-03-26T14:46:28.244Z,30.51
2023-03-26T14:49:51.728Z,29.08
2023-03-26T14:53:01.301Z,27.79
2023-03-26T14:56:15.762Z,29.36
2023-03-26T14:59:55.456Z,29.86
2023-03-26T15:03:17.493Z,29.84
2023-03-26T15:06:31.987Z,30.11
2023-03-26T15:09:49.377Z,29.97
2023-03-26T15:13:07.226Z,30.33
2023-03-26T15:16:21.613Z,31.78
2023-03-26T15:19:42.912Z,31.67
2023-03-26T15:23:18.461Z,31.94
2023-03-26T15:26:30.855Z,32.80
2023-03-26T15:30:00.382Z,32.64
2023-03-26T15:33:27.721Z,32.21
2023-03-26T15:37:18.669Z,33.75
2023-03-26T15:40:48.386Z,33.66
2023-03-26T15:44:23.035Z,33.25
2023-03-26T15:47:30.874Z,34.80
2023-03-26T15:50:55.931Z,33.92
2023-03-26T15:54:07.613Z,34.61
2023-03-26T15:57:34.600Z,34.59
2023-03-26T16:01:03.005Z,35.49
2023-03-26T16:04:36.098Z,35.63
2023-03-26T16:08:09.210Z,35.95
2023-03-26T16:11:12.722Z,36.82
2023-03-26T16:14:44.543Z,36.84
2023-03-26T16:18:16.840Z,37.52
2023-03-26T16:21:31.944Z,37.27
2023-03-26T16:24:41.079Z,37.43
2023-03-26T16:27:45.189Z,37.37
2023-03-26T16:31:23.519Z,37.72
2023-03-26T16:34:46.116Z,38.56
2023-03-26T16:37:50.648Z,39.13
2023-03-26T16:41:01.110Z,39.37
2023-03-26T16:44:19.636Z,40.24
2023-03-26T16:47:46.234Z,41.30
2023-03-26T16:51:09.311Z,41.74
2023-03-26T16:54:41.044Z,41.16
2023-03-26T16:57:56.197Z,41.30
2023-03-26T17:01:27.871Z,42.07
2023-03-26T17:04:34.416Z,42.24
2023-03-26T17:07:48.094Z,42.87
2023-03-26T17:11:00.396Z,42.99
2023-03-26T17:14:27.173Z,42.80
2023-03-26T17:17:57.337Z,43.36
2023-03-26T17:21:02.640Z,43.47
2023-03-26T17:24:36.329Z,43.48
2023-03-26T17:27:49.964Z,44.08
2023-03-26T17:31:11.259Z,44.92
2023-03-26T17:34:46.848Z,44.49
2023-03-26T17:37:49.716Z,44.83
2023-03-26T17:40:58.354Z,45.39
2023-03-26T17:44:25.664Z,45.18
2023-03-26T17:47:52.873Z,45.34
2023-03-26T17:50:59.180Z,45.05
2023-03-26T17:54:02.213Z,44.88
2023-03-26T17:57:26.933Z,47.68
2023-03-26T18:00:35.991Z,45.27
2023-03-26T18:03:49.455Z,45.75
2023-03-26T18:07:18.370Z,45.65
2023-03-26T18:10:56.223Z,45.22
2023-03-26T18:14:15.667Z,45.04
2023-03-26T18:17:18.296Z,45.58
2023-03-26T18:20:26.885Z,46.69
2023-03-26T18:23:39.097Z,46.00
2023-03-26T18:26:44.434Z,44.39
2023-03-26T18:30:02.771Z,47.85
2023-03-26T18:33:14.558Z,46.01
2023-03-26T18:36:18.592Z,45.73
2023-03-26T18:39:20.687Z,45.35
2023-03-26T18:42:24.491Z,46.06
2023-03-26T18:45:39.446Z,45.19
2023-03-26T18:48:42.609Z,46.37
2023-03-26T18:51:56.093Z,45.03
2023-03-26T18:54:59.672Z,44.94
2023-03-26T18:58:21.448Z,46.14
2023-03-26T19:01:30.645Z,45.89
2023-03-26T19:04:34.935Z,45.32
2023-03-26T19:07:38.998Z,45.81
2023-03-26T19:10:41.385Z,45.71
2023-03-26T19:13:46.310Z,46.51
2023-03-26T19:17:02.099Z,46.29
2023-03-26T19:20:10.012Z,46.68
2023-03-26T19:23:26.553Z,46.21
2023-03-26T19:26:29.388Z,45.53
2023-03-26T19:29:35.169Z,46.04
2023-03-26T19:32:37.768Z,48.36
2023-03-26T19:35:41.950Z,49.16
2023-03-26T19:38:52.399Z,48.49
2023-03-26T19:41:55.226Z,47.72
2023-03-26T19:45:01.760Z,48.67
2023-03-26T19:48:14.938Z,49.82
2023-03-26T19:51:38.683Z,49.38
2023-03-26T19:54:59.698Z,48.50
2023-03-26T19:58:04.221Z,49.94
2023-03-26T20:01:12.616Z,49.34
2023-03-26T20:04:16.369Z,49.70
2023-03-26T20:07:35.437Z,49.03
2023-03-26T20:10:38.793Z,49.37
2023-03-26T20:13:41.317Z,49.50
2023-03-26T20:16:45.318Z,49.70
2023-03-26T20:19:48.657Z,49.43
2023-03-26T20:22:53.858Z,50.48
2023-03-26T20:25:56.701Z,50.04
2023-03-26T20:29:00.152Z,51.87
2023-03-26T20:32:06.280Z,49.52
2023-03-26T20:35:35.916Z,50.13
2023-03-26T20:38:43.317Z,51.90
2023-03-26T20:41:48.231Z,52.39
2023-03-26T20:44:50.984Z,52.48
2023-03-26T20:47:54.178Z,53.38
2023-03-26T20:50:57.112Z,54.06
2023-03-26T20:54:00.443Z,52.47
2023-03-26T20:57:02.934Z,52.16
2023-03-26T21:00:17.240Z,52.58
2023-03-26T21:03:19.585Z,53.50
2023-03-26T21:06:22.133Z,54.45
2023-03-26T21:09:25.156Z,52.85
2023-03-26T21:12:33.481Z,52.58
2023-03-26T21:15:35.963Z,52.76
2023-03-26T21:18:39.721Z,53.05
2023-03-26T21:22:10.757Z,52.92
2023-03-26T21:25:19.693Z,53.07
2023-03-26T21:28:46.691Z,53.94
2023-03-26T21:31:50.506Z,55.73
2023-03-26T21:34:59.290Z,55.12
2023-03-26T21:38:04.740Z,55.29
2023-03-26T21:41:07.730Z,58.67
2023-03-26T21:44:10.390Z,63.60
2023-03-26T21:47:13.102Z,65.79
2023-03-26T21:50:21.689Z,72.80
2023-03-26T21:53:24.118Z,72.06
2023-03-26T21:56:32.192Z,74.62
2023-03-26T21:59:43.677Z,74.78
2023-03-26T22:02:49.092Z,76.54
2023-03-26T22:05:54.497Z,77.28
2023-03-26T22:08:57.034Z,76.70
2023-03-26T22:11:59.529Z,78.28
2023-03-26T22:15:01.710Z,74.85
2023-03-26T22:18:04.939Z,75.22
2023-03-26T22:21:07.575Z,77.73
2023-03-26T22:24:12.111Z,80.83
2023-03-26T22:27:16.035Z,84.61
2023-03-26T22:30:20.637Z,86.34
2023-03-26T22:33:22.915Z,90.20
2023-03-26T22:36:25.400Z,97.98
2023-03-26T22:39:27.643Z,100.00
2023-03-26T22:42:30.108Z,100.00
2023-03-26T22:45:32.599Z,100.00
2023-03-26T22:48:35.792Z,100.00
2023-03-26T22:51:37.944Z,100.00
2023-03-26T22:54:40.465Z,100.00
2023-03-26T22:57:42.773Z,100.00
2023-03-26T23:00:46.392Z,100.00
2023-03-26T23:03:49.277Z,100.00
2023-03-26T23:06:51.727Z,100.00
2023-03-26T23:09:53.926Z,100.00
2023-03-26T23:12:56.408Z,100.00
2023-03-26T23:15:59.256Z,100.00
2023-03-26T23:19:01.685Z,100.00
2023-03-26T23:22:03.845Z,100.00
2023-03-26T23:25:07.161Z,100.00
2023-03-26T23:28:09.911Z,100.00
2023-03-26T23:31:13.080Z,100.00
2023-03-26T23:34:16.853Z,100.00
2023-03-26T23:37:23.091Z,100.00
2023-03-26T23:40:25.447Z,100.00
2023-03-26T23:43:28.863Z,100.00
2023-03-26T23:46:34.452Z,100.00
2023-03-26T23:49:37.751Z,100.00
2023-03-26T23:52:40.081Z,100.00
2023-03-26T23:55:46.243Z,100.00
2023-03-26T23:58:51.187Z,100.00
